sensor_id;sensor_type;location;lat;lon;timestamp;temperature;humidity
3198;DHT22;1611;49.394;11.136;2023-05-27T00:01:10;15.40;34.60
3198;DHT22;1611;49.394;11.136;2023-05-27T00:03:38;15.30;34.90
3198;DHT22;1611;49.394;11.136;2023-05-27T00:06:05;15.20;34.60
3198;DHT22;1611;49.394;11.136;2023-05-27T00:08:32;15.10;35.00
3198;DHT22;1611;49.394;11.136;2023-05-27T00:10:58;15.00;35.40
3198;DHT22;1611;49.394;11.136;2023-05-27T00:13:26;15.00;35.50
3198;DHT22;1611;49.394;11.136;2023-05-27T00:15:53;14.90;35.50
3198;DHT22;1611;49.394;11.136;2023-05-27T00:18:21;14.90;36.00
3198;DHT22;1611;49.394;11.136;2023-05-27T00:20:47;14.80;36.40
3198;DHT22;1611;49.394;11.136;2023-05-27T00:23:14;14.80;36.80
3198;DHT22;1611;49.394;11.136;2023-05-27T00:25:41;14.70;36.50
3198;DHT22;1611;49.394;11.136;2023-05-27T00:28:08;14.70;37.00
3198;DHT22;1611;49.394;11.136;2023-05-27T00:30:36;14.60;36.40
3198;DHT22;1611;49.394;11.136;2023-05-27T00:33:03;14.60;36.90
3198;DHT22;1611;49.394;11.136;2023-05-27T00:35:30;14.60;37.80
3198;DHT22;1611;49.394;11.136;2023-05-27T00:37:56;14.50;38.30
3198;DHT22;1611;49.394;11.136;2023-05-27T00:40:25;14.40;37.90
3198;DHT22;1611;49.394;11.136;2023-05-27T00:42:52;14.30;38.00
3198;DHT22;1611;49.394;11.136;2023-05-27T00:45:20;14.30;38.00
3198;DHT22;1611;49.394;11.136;2023-05-27T00:47:49;14.30;38.80
3198;DHT22;1611;49.394;11.136;2023-05-27T00:50:16;14.30;39.00
3198;DHT22;1611;49.394;11.136;2023-05-27T00:52:44;14.20;39.00
3198;DHT22;1611;49.394;11.136;2023-05-27T00:55:11;14.10;39.10
3198;DHT22;1611;49.394;11.136;2023-05-27T00:57:38;14.10;39.50
3198;DHT22;1611;49.394;11.136;2023-05-27T01:00:06;14.10;39.10
3198;DHT22;1611;49.394;11.136;2023-05-27T01:02:35;14.20;39.00
3198;DHT22;1611;49.394;11.136;2023-05-27T01:05:08;14.10;39.20
3198;DHT22;1611;49.394;11.136;2023-05-27T01:07:42;14.20;38.90
3198;DHT22;1611;49.394;11.136;2023-05-27T01:10:18;14.20;38.40
3198;DHT22;1611;49.394;11.136;2023-05-27T01:12:53;14.20;38.00
3198;DHT22;1611;49.394;11.136;2023-05-27T01:15:22;14.30;37.80
3198;DHT22;1611;49.394;11.136;2023-05-27T01:17:53;14.30;38.10
3198;DHT22;1611;49.394;11.136;2023-05-27T01:20:23;14.30;38.90
3198;DHT22;1611;49.394;11.136;2023-05-27T01:22:51;14.30;38.80
3198;DHT22;1611;49.394;11.136;2023-05-27T01:25:19;14.30;38.50
3198;DHT22;1611;49.394;11.136;2023-05-27T01:27:46;14.30;37.50
3198;DHT22;1611;49.394;11.136;2023-05-27T01:30:13;14.30;34.70
3198;DHT22;1611;49.394;11.136;2023-05-27T01:32:43;14.30;34.90
3198;DHT22;1611;49.394;11.136;2023-05-27T01:35:17;14.20;34.00
3198;DHT22;1611;49.394;11.136;2023-05-27T01:37:47;14.30;33.60
3198;DHT22;1611;49.394;11.136;2023-05-27T01:40:16;14.30;33.80
3198;DHT22;1611;49.394;11.136;2023-05-27T01:42:44;14.30;33.50
3198;DHT22;1611;49.394;11.136;2023-05-27T01:45:11;14.30;34.60
3198;DHT22;1611;49.394;11.136;2023-05-27T01:47:38;14.30;36.10
3198;DHT22;1611;49.394;11.136;2023-05-27T01:50:06;14.30;33.90
3198;DHT22;1611;49.394;11.136;2023-05-27T01:52:33;14.30;33.10
3198;DHT22;1611;49.394;11.136;2023-05-27T01:55:00;14.20;33.30
3198;DHT22;1611;49.394;11.136;2023-05-27T01:57:29;14.30;33.40
3198;DHT22;1611;49.394;11.136;2023-05-27T01:59:55;14.30;33.20
3198;DHT22;1611;49.394;11.136;2023-05-27T02:02:22;14.30;33.60
3198;DHT22;1611;49.394;11.136;2023-05-27T02:04:49;14.30;36.30
3198;DHT22;1611;49.394;11.136;2023-05-27T02:07:16;14.30;37.20
3198;DHT22;1611;49.394;11.136;2023-05-27T02:09:45;14.30;35.80
3198;DHT22;1611;49.394;11.136;2023-05-27T02:12:12;14.30;35.60
3198;DHT22;1611;49.394;11.136;2023-05-27T02:14:40;14.30;34.80
3198;DHT22;1611;49.394;11.136;2023-05-27T02:17:07;14.30;36.60
3198;DHT22;1611;49.394;11.136;2023-05-27T02:19:34;14.20;36.70
3198;DHT22;1611;49.394;11.136;2023-05-27T02:22:00;14.20;36.20
3198;DHT22;1611;49.394;11.136;2023-05-27T02:24:27;14.20;36.50
3198;DHT22;1611;49.394;11.136;2023-05-27T02:26:54;14.10;36.60
3198;DHT22;1611;49.394;11.136;2023-05-27T02:29:21;14.10;36.70
3198;DHT22;1611;49.394;11.136;2023-05-27T02:31:49;14.10;36.80
3198;DHT22;1611;49.394;11.136;2023-05-27T02:34:15;14.00;37.20
3198;DHT22;1611;49.394;11.136;2023-05-27T02:36:42;14.00;37.40
3198;DHT22;1611;49.394;11.136;2023-05-27T02:39:09;14.00;36.90
3198;DHT22;1611;49.394;11.136;2023-05-27T02:41:36;13.90;37.60
3198;DHT22;1611;49.394;11.136;2023-05-27T02:44:03;13.70;37.80
3198;DHT22;1611;49.394;11.136;2023-05-27T02:46:30;13.70;37.70
3198;DHT22;1611;49.394;11.136;2023-05-27T02:48:58;13.80;37.20
3198;DHT22;1611;49.394;11.136;2023-05-27T02:51:25;13.80;36.40
3198;DHT22;1611;49.394;11.136;2023-05-27T02:53:51;13.80;36.00
3198;DHT22;1611;49.394;11.136;2023-05-27T02:56:18;13.70;35.50
3198;DHT22;1611;49.394;11.136;2023-05-27T02:58:45;13.70;34.60
3198;DHT22;1611;49.394;11.136;2023-05-27T03:01:11;13.70;34.60
3198;DHT22;1611;49.394;11.136;2023-05-27T03:03:38;13.60;34.40
3198;DHT22;1611;49.394;11.136;2023-05-27T03:06:07;13.60;34.40
3198;DHT22;1611;49.394;11.136;2023-05-27T03:08:34;13.60;36.30
3198;DHT22;1611;49.394;11.136;2023-05-27T03:11:01;13.50;37.90
3198;DHT22;1611;49.394;11.136;2023-05-27T03:13:28;13.50;37.60
3198;DHT22;1611;49.394;11.136;2023-05-27T03:15:54;13.50;38.20
3198;DHT22;1611;49.394;11.136;2023-05-27T03:18:21;13.30;39.10
3198;DHT22;1611;49.394;11.136;2023-05-27T03:20:48;13.20;39.80
3198;DHT22;1611;49.394;11.136;2023-05-27T03:23:17;13.10;40.50
3198;DHT22;1611;49.394;11.136;2023-05-27T03:25:44;12.90;40.70
3198;DHT22;1611;49.394;11.136;2023-05-27T03:28:10;12.80;40.80
3198;DHT22;1611;49.394;11.136;2023-05-27T03:30:37;12.80;41.00
3198;DHT22;1611;49.394;11.136;2023-05-27T03:33:04;12.70;41.30
3198;DHT22;1611;49.394;11.136;2023-05-27T03:35:31;12.70;41.40
3198;DHT22;1611;49.394;11.136;2023-05-27T03:37:58;12.50;40.90
3198;DHT22;1611;49.394;11.136;2023-05-27T03:40:26;12.50;41.50
3198;DHT22;1611;49.394;11.136;2023-05-27T03:42:53;12.50;41.50
3198;DHT22;1611;49.394;11.136;2023-05-27T03:45:20;12.50;41.20
3198;DHT22;1611;49.394;11.136;2023-05-27T03:47:46;12.40;41.00
3198;DHT22;1611;49.394;11.136;2023-05-27T03:50:13;12.30;41.40
3198;DHT22;1611;49.394;11.136;2023-05-27T03:52:40;12.20;41.90
3198;DHT22;1611;49.394;11.136;2023-05-27T03:55:07;12.20;42.10
3198;DHT22;1611;49.394;11.136;2023-05-27T03:57:36;12.30;42.30
3198;DHT22;1611;49.394;11.136;2023-05-27T04:00:03;12.30;42.10
3198;DHT22;1611;49.394;11.136;2023-05-27T04:02:33;12.30;41.80
3198;DHT22;1611;49.394;11.136;2023-05-27T04:05:00;12.20;41.90
3198;DHT22;1611;49.394;11.136;2023-05-27T04:07:27;12.30;42.70
3198;DHT22;1611;49.394;11.136;2023-05-27T04:09:54;12.30;43.00
3198;DHT22;1611;49.394;11.136;2023-05-27T04:12:21;12.30;43.10
3198;DHT22;1611;49.394;11.136;2023-05-27T04:14:49;12.30;43.10
3198;DHT22;1611;49.394;11.136;2023-05-27T04:17:16;12.40;42.90
3198;DHT22;1611;49.394;11.136;2023-05-27T04:19:43;12.40;43.10
3198;DHT22;1611;49.394;11.136;2023-05-27T04:22:10;12.40;42.80
3198;DHT22;1611;49.394;11.136;2023-05-27T04:24:37;12.40;43.10
3198;DHT22;1611;49.394;11.136;2023-05-27T04:27:05;12.50;43.70
3198;DHT22;1611;49.394;11.136;2023-05-27T04:29:32;12.50;44.60
3198;DHT22;1611;49.394;11.136;2023-05-27T04:32:01;12.50;44.60
3198;DHT22;1611;49.394;11.136;2023-05-27T04:34:27;12.60;44.90
3198;DHT22;1611;49.394;11.136;2023-05-27T04:36:54;12.60;44.10
3198;DHT22;1611;49.394;11.136;2023-05-27T04:39:21;12.60;44.30
3198;DHT22;1611;49.394;11.136;2023-05-27T04:41:48;12.60;44.40
3198;DHT22;1611;49.394;11.136;2023-05-27T04:44:16;12.70;44.20
3198;DHT22;1611;49.394;11.136;2023-05-27T04:46:43;12.80;44.50
3198;DHT22;1611;49.394;11.136;2023-05-27T04:49:11;12.80;44.50
3198;DHT22;1611;49.394;11.136;2023-05-27T04:51:38;12.90;44.50
3198;DHT22;1611;49.394;11.136;2023-05-27T04:54:05;13.00;43.80
3198;DHT22;1611;49.394;11.136;2023-05-27T04:56:32;13.00;43.50
3198;DHT22;1611;49.394;11.136;2023-05-27T04:58:59;13.00;44.20
3198;DHT22;1611;49.394;11.136;2023-05-27T05:01:26;13.10;43.70
3198;DHT22;1611;49.394;11.136;2023-05-27T05:03:54;13.20;43.60
3198;DHT22;1611;49.394;11.136;2023-05-27T05:06:39;13.20;43.90
3198;DHT22;1611;49.394;11.136;2023-05-27T05:09:06;13.30;42.10
3198;DHT22;1611;49.394;11.136;2023-05-27T05:11:34;13.30;41.80
3198;DHT22;1611;49.394;11.136;2023-05-27T05:14:01;13.30;40.50
3198;DHT22;1611;49.394;11.136;2023-05-27T05:16:28;13.40;42.00
3198;DHT22;1611;49.394;11.136;2023-05-27T05:18:55;13.40;42.20
3198;DHT22;1611;49.394;11.136;2023-05-27T05:21:22;13.40;42.40
3198;DHT22;1611;49.394;11.136;2023-05-27T05:23:50;13.60;42.70
3198;DHT22;1611;49.394;11.136;2023-05-27T05:26:17;13.60;43.10
3198;DHT22;1611;49.394;11.136;2023-05-27T05:28:44;13.80;42.20
3198;DHT22;1611;49.394;11.136;2023-05-27T05:31:10;13.80;39.10
3198;DHT22;1611;49.394;11.136;2023-05-27T05:33:37;13.90;37.70
3198;DHT22;1611;49.394;11.136;2023-05-27T05:36:04;14.10;36.40
3198;DHT22;1611;49.394;11.136;2023-05-27T05:38:31;14.30;36.40
3198;DHT22;1611;49.394;11.136;2023-05-27T05:40:59;14.30;34.60
3198;DHT22;1611;49.394;11.136;2023-05-27T05:43:26;14.40;34.80
3198;DHT22;1611;49.394;11.136;2023-05-27T05:45:53;14.60;35.00
3198;DHT22;1611;49.394;11.136;2023-05-27T05:48:20;14.70;33.10
3198;DHT22;1611;49.394;11.136;2023-05-27T05:50:46;14.80;32.90
3198;DHT22;1611;49.394;11.136;2023-05-27T05:53:13;14.90;33.40
3198;DHT22;1611;49.394;11.136;2023-05-27T05:55:40;15.00;32.00
3198;DHT22;1611;49.394;11.136;2023-05-27T05:58:08;15.10;31.90
3198;DHT22;1611;49.394;11.136;2023-05-27T06:00:35;15.20;32.80
3198;DHT22;1611;49.394;11.136;2023-05-27T06:03:02;15.20;32.40
3198;DHT22;1611;49.394;11.136;2023-05-27T06:05:28;15.20;31.80
3198;DHT22;1611;49.394;11.136;2023-05-27T06:07:55;15.30;31.90
3198;DHT22;1611;49.394;11.136;2023-05-27T06:10:22;15.40;31.00
3198;DHT22;1611;49.394;11.136;2023-05-27T06:12:49;15.40;31.20
3198;DHT22;1611;49.394;11.136;2023-05-27T06:15:17;15.60;31.60
3198;DHT22;1611;49.394;11.136;2023-05-27T06:17:44;15.60;30.80
3198;DHT22;1611;49.394;11.136;2023-05-27T06:20:13;15.70;29.70
3198;DHT22;1611;49.394;11.136;2023-05-27T06:22:40;15.70;28.60
3198;DHT22;1611;49.394;11.136;2023-05-27T06:25:07;15.80;27.90
3198;DHT22;1611;49.394;11.136;2023-05-27T06:27:34;15.90;28.30
3198;DHT22;1611;49.394;11.136;2023-05-27T06:30:00;15.90;28.20
3198;DHT22;1611;49.394;11.136;2023-05-27T06:32:29;16.00;28.20
3198;DHT22;1611;49.394;11.136;2023-05-27T06:34:55;16.20;27.70
3198;DHT22;1611;49.394;11.136;2023-05-27T06:37:22;16.20;26.60
3198;DHT22;1611;49.394;11.136;2023-05-27T06:39:49;16.20;27.10
3198;DHT22;1611;49.394;11.136;2023-05-27T06:42:15;16.30;27.30
3198;DHT22;1611;49.394;11.136;2023-05-27T06:44:44;16.40;26.00
3198;DHT22;1611;49.394;11.136;2023-05-27T06:47:10;16.40;27.70
3198;DHT22;1611;49.394;11.136;2023-05-27T06:49:38;16.50;26.30
3198;DHT22;1611;49.394;11.136;2023-05-27T06:52:05;16.60;26.50
3198;DHT22;1611;49.394;11.136;2023-05-27T06:54:32;16.70;26.90
3198;DHT22;1611;49.394;11.136;2023-05-27T06:56:59;16.90;26.50
3198;DHT22;1611;49.394;11.136;2023-05-27T06:59:27;17.10;26.60
3198;DHT22;1611;49.394;11.136;2023-05-27T07:01:53;17.10;25.70
3198;DHT22;1611;49.394;11.136;2023-05-27T07:04:21;17.00;25.40
3198;DHT22;1611;49.394;11.136;2023-05-27T07:06:50;17.10;25.10
3198;DHT22;1611;49.394;11.136;2023-05-27T07:09:17;17.00;26.00
3198;DHT22;1611;49.394;11.136;2023-05-27T07:11:43;17.30;26.50
3198;DHT22;1611;49.394;11.136;2023-05-27T07:14:10;17.50;26.00
3198;DHT22;1611;49.394;11.136;2023-05-27T07:16:37;17.50;25.40
3198;DHT22;1611;49.394;11.136;2023-05-27T07:19:04;17.60;25.30
3198;DHT22;1611;49.394;11.136;2023-05-27T07:21:31;17.60;25.10
3198;DHT22;1611;49.394;11.136;2023-05-27T07:23:59;17.70;24.50
3198;DHT22;1611;49.394;11.136;2023-05-27T07:26:28;17.70;24.50
3198;DHT22;1611;49.394;11.136;2023-05-27T07:28:56;17.80;24.00
3198;DHT22;1611;49.394;11.136;2023-05-27T07:31:23;17.70;24.10
3198;DHT22;1611;49.394;11.136;2023-05-27T07:33:50;17.70;24.10
3198;DHT22;1611;49.394;11.136;2023-05-27T07:36:17;17.70;24.40
3198;DHT22;1611;49.394;11.136;2023-05-27T07:38:44;17.70;24.20
3198;DHT22;1611;49.394;11.136;2023-05-27T07:41:12;17.80;23.80
3198;DHT22;1611;49.394;11.136;2023-05-27T07:43:39;17.70;24.40
3198;DHT22;1611;49.394;11.136;2023-05-27T07:46:05;17.80;24.40
3198;DHT22;1611;49.394;11.136;2023-05-27T07:48:32;17.90;24.90
3198;DHT22;1611;49.394;11.136;2023-05-27T07:50:59;18.10;25.00
3198;DHT22;1611;49.394;11.136;2023-05-27T07:53:26;18.30;24.80
3198;DHT22;1611;49.394;11.136;2023-05-27T07:55:52;18.40;25.00
3198;DHT22;1611;49.394;11.136;2023-05-27T07:58:20;18.60;24.30
3198;DHT22;1611;49.394;11.136;2023-05-27T08:00:47;18.80;23.10
3198;DHT22;1611;49.394;11.136;2023-05-27T08:03:14;18.70;23.10
3198;DHT22;1611;49.394;11.136;2023-05-27T08:05:41;18.70;24.20
3198;DHT22;1611;49.394;11.136;2023-05-27T08:08:08;18.80;22.70
3198;DHT22;1611;49.394;11.136;2023-05-27T08:10:35;18.80;23.50
3198;DHT22;1611;49.394;11.136;2023-05-27T08:13:01;18.80;23.20
3198;DHT22;1611;49.394;11.136;2023-05-27T08:15:29;19.00;23.90
3198;DHT22;1611;49.394;11.136;2023-05-27T08:17:57;19.20;23.10
3198;DHT22;1611;49.394;11.136;2023-05-27T08:20:25;19.30;22.70
3198;DHT22;1611;49.394;11.136;2023-05-27T08:22:51;19.10;23.70
3198;DHT22;1611;49.394;11.136;2023-05-27T08:25:18;19.30;23.10
3198;DHT22;1611;49.394;11.136;2023-05-27T08:27:48;19.40;22.40
3198;DHT22;1611;49.394;11.136;2023-05-27T08:30:15;19.40;22.60
3198;DHT22;1611;49.394;11.136;2023-05-27T08:32:44;19.50;22.60
3198;DHT22;1611;49.394;11.136;2023-05-27T08:35:11;19.60;22.30
3198;DHT22;1611;49.394;11.136;2023-05-27T08:37:38;19.70;22.70
3198;DHT22;1611;49.394;11.136;2023-05-27T08:40:10;19.70;21.80
3198;DHT22;1611;49.394;11.136;2023-05-27T08:42:37;19.90;22.30
3198;DHT22;1611;49.394;11.136;2023-05-27T08:45:04;20.00;21.70
3198;DHT22;1611;49.394;11.136;2023-05-27T08:47:32;20.10;21.20
3198;DHT22;1611;49.394;11.136;2023-05-27T08:50:00;20.20;21.90
3198;DHT22;1611;49.394;11.136;2023-05-27T08:52:28;20.40;21.30
3198;DHT22;1611;49.394;11.136;2023-05-27T08:54:56;20.60;20.80
3198;DHT22;1611;49.394;11.136;2023-05-27T08:57:28;20.70;20.10
3198;DHT22;1611;49.394;11.136;2023-05-27T08:59:55;20.70;21.10
3198;DHT22;1611;49.394;11.136;2023-05-27T09:02:22;20.80;21.50
3198;DHT22;1611;49.394;11.136;2023-05-27T09:04:50;20.90;20.50
3198;DHT22;1611;49.394;11.136;2023-05-27T09:07:19;20.80;19.60
3198;DHT22;1611;49.394;11.136;2023-05-27T09:09:54;20.90;20.40
3198;DHT22;1611;49.394;11.136;2023-05-27T09:12:22;21.10;20.00
3198;DHT22;1611;49.394;11.136;2023-05-27T09:14:50;21.40;18.90
3198;DHT22;1611;49.394;11.136;2023-05-27T09:17:17;21.30;19.10
3198;DHT22;1611;49.394;11.136;2023-05-27T09:19:44;21.40;18.90
3198;DHT22;1611;49.394;11.136;2023-05-27T09:22:20;21.60;20.40
3198;DHT22;1611;49.394;11.136;2023-05-27T09:24:47;21.60;19.90
3198;DHT22;1611;49.394;11.136;2023-05-27T09:27:14;21.80;19.50
3198;DHT22;1611;49.394;11.136;2023-05-27T09:29:41;21.50;19.20
3198;DHT22;1611;49.394;11.136;2023-05-27T09:32:08;21.60;18.40
3198;DHT22;1611;49.394;11.136;2023-05-27T09:34:38;21.80;18.50
3198;DHT22;1611;49.394;11.136;2023-05-27T09:37:05;21.80;19.30
3198;DHT22;1611;49.394;11.136;2023-05-27T09:39:34;22.00;17.90
3198;DHT22;1611;49.394;11.136;2023-05-27T09:42:01;22.20;17.60
3198;DHT22;1611;49.394;11.136;2023-05-27T09:44:28;22.20;17.60
3198;DHT22;1611;49.394;11.136;2023-05-27T09:46:56;22.40;17.00
3198;DHT22;1611;49.394;11.136;2023-05-27T09:49:25;22.40;17.40
3198;DHT22;1611;49.394;11.136;2023-05-27T09:51:54;22.50;17.90
3198;DHT22;1611;49.394;11.136;2023-05-27T09:54:23;22.50;18.10
3198;DHT22;1611;49.394;11.136;2023-05-27T09:56:52;22.50;17.70
3198;DHT22;1611;49.394;11.136;2023-05-27T09:59:19;22.30;17.40
3198;DHT22;1611;49.394;11.136;2023-05-27T10:01:46;22.40;18.50
3198;DHT22;1611;49.394;11.136;2023-05-27T10:04:14;22.60;19.30
3198;DHT22;1611;49.394;11.136;2023-05-27T10:06:41;22.60;17.60
3198;DHT22;1611;49.394;11.136;2023-05-27T10:09:08;22.80;16.40
3198;DHT22;1611;49.394;11.136;2023-05-27T10:11:35;22.80;16.40
3198;DHT22;1611;49.394;11.136;2023-05-27T10:14:05;22.90;16.70
3198;DHT22;1611;49.394;11.136;2023-05-27T10:16:32;23.10;18.10
3198;DHT22;1611;49.394;11.136;2023-05-27T10:19:01;23.30;17.50
3198;DHT22;1611;49.394;11.136;2023-05-27T10:21:28;23.10;15.50
3198;DHT22;1611;49.394;11.136;2023-05-27T10:23:57;23.20;15.70
3198;DHT22;1611;49.394;11.136;2023-05-27T10:26:33;23.10;16.20
3198;DHT22;1611;49.394;11.136;2023-05-27T10:29:09;23.20;16.30
3198;DHT22;1611;49.394;11.136;2023-05-27T10:31:36;23.30;16.10
3198;DHT22;1611;49.394;11.136;2023-05-27T10:34:09;23.70;16.00
3198;DHT22;1611;49.394;11.136;2023-05-27T10:36:36;23.30;14.70
3198;DHT22;1611;49.394;11.136;2023-05-27T10:39:04;23.40;14.90
3198;DHT22;1611;49.394;11.136;2023-05-27T10:41:39;23.50;15.50
3198;DHT22;1611;49.394;11.136;2023-05-27T10:44:08;23.60;14.60
3198;DHT22;1611;49.394;11.136;2023-05-27T10:46:39;23.80;15.40
3198;DHT22;1611;49.394;11.136;2023-05-27T10:49:11;23.80;14.40
3198;DHT22;1611;49.394;11.136;2023-05-27T10:51:38;24.30;15.60
3198;DHT22;1611;49.394;11.136;2023-05-27T10:54:05;24.50;12.70
3198;DHT22;1611;49.394;11.136;2023-05-27T10:56:32;24.70;13.00
3198;DHT22;1611;49.394;11.136;2023-05-27T10:59:00;24.70;13.00
3198;DHT22;1611;49.394;11.136;2023-05-27T11:01:31;24.90;12.70
3198;DHT22;1611;49.394;11.136;2023-05-27T11:03:59;24.90;12.40
3198;DHT22;1611;49.394;11.136;2023-05-27T11:06:25;24.80;12.80
3198;DHT22;1611;49.394;11.136;2023-05-27T11:08:52;25.00;13.10
3198;DHT22;1611;49.394;11.136;2023-05-27T11:11:19;25.30;13.00
3198;DHT22;1611;49.394;11.136;2023-05-27T11:13:47;25.50;11.10
3198;DHT22;1611;49.394;11.136;2023-05-27T11:16:14;25.30;11.60
3198;DHT22;1611;49.394;11.136;2023-05-27T11:18:43;25.60;10.90
3198;DHT22;1611;49.394;11.136;2023-05-27T11:21:11;25.70;10.70
3198;DHT22;1611;49.394;11.136;2023-05-27T11:23:41;25.80;10.20
3198;DHT22;1611;49.394;11.136;2023-05-27T11:26:13;26.10;10.40
3198;DHT22;1611;49.394;11.136;2023-05-27T11:28:45;26.90;10.70
3198;DHT22;1611;49.394;11.136;2023-05-27T11:31:12;27.90;9.20
3198;DHT22;1611;49.394;11.136;2023-05-27T11:33:42;28.40;6.60
3198;DHT22;1611;49.394;11.136;2023-05-27T11:36:12;29.00;6.60
3198;DHT22;1611;49.394;11.136;2023-05-27T11:38:46;30.60;6.30
3198;DHT22;1611;49.394;11.136;2023-05-27T11:41:13;32.50;4.80
3198;DHT22;1611;49.394;11.136;2023-05-27T11:43:47;33.30;2.90
3198;DHT22;1611;49.394;11.136;2023-05-27T11:46:14;34.50;3.10
3198;DHT22;1611;49.394;11.136;2023-05-27T11:48:42;35.50;2.00
3198;DHT22;1611;49.394;11.136;2023-05-27T11:51:10;36.10;1.00
3198;DHT22;1611;49.394;11.136;2023-05-27T11:53:39;36.60;1.00
3198;DHT22;1611;49.394;11.136;2023-05-27T11:56:06;36.60;1.00
3198;DHT22;1611;49.394;11.136;2023-05-27T11:58:33;37.30;1.00
3198;DHT22;1611;49.394;11.136;2023-05-27T12:00:59;37.90;1.00
3198;DHT22;1611;49.394;11.136;2023-05-27T12:03:26;38.00;1.00
3198;DHT22;1611;49.394;11.136;2023-05-27T12:05:55;38.40;1.00
3198;DHT22;1611;49.394;11.136;2023-05-27T12:08:21;38.30;1.00
3198;DHT22;1611;49.394;11.136;2023-05-27T12:10:48;37.90;1.00
3198;DHT22;1611;49.394;11.136;2023-05-27T12:13:19;39.10;1.00
3198;DHT22;1611;49.394;11.136;2023-05-27T12:15:46;38.90;1.00
3198;DHT22;1611;49.394;11.136;2023-05-27T12:18:13;38.40;1.00
3198;DHT22;1611;49.394;11.136;2023-05-27T12:20:41;38.60;1.00
3198;DHT22;1611;49.394;11.136;2023-05-27T12:23:09;39.40;1.00
3198;DHT22;1611;49.394;11.136;2023-05-27T12:25:36;39.70;1.00
3198;DHT22;1611;49.394;11.136;2023-05-27T12:28:03;40.50;1.00
3198;DHT22;1611;49.394;11.136;2023-05-27T12:30:29;41.40;1.00
3198;DHT22;1611;49.394;11.136;2023-05-27T12:32:56;42.10;1.00
3198;DHT22;1611;49.394;11.136;2023-05-27T12:35:24;41.70;1.00
3198;DHT22;1611;49.394;11.136;2023-05-27T12:37:51;42.10;1.00
3198;DHT22;1611;49.394;11.136;2023-05-27T12:40:19;41.70;1.00
3198;DHT22;1611;49.394;11.136;2023-05-27T12:42:46;41.90;1.00
3198;DHT22;1611;49.394;11.136;2023-05-27T12:45:12;41.60;1.00
3198;DHT22;1611;49.394;11.136;2023-05-27T12:47:40;41.70;1.00
3198;DHT22;1611;49.394;11.136;2023-05-27T12:50:07;41.70;1.00
3198;DHT22;1611;49.394;11.136;2023-05-27T12:52:34;40.80;1.00
3198;DHT22;1611;49.394;11.136;2023-05-27T12:55:02;41.30;1.00
3198;DHT22;1611;49.394;11.136;2023-05-27T12:57:30;41.20;1.00
3198;DHT22;1611;49.394;11.136;2023-05-27T12:59:56;40.70;1.00
3198;DHT22;1611;49.394;11.136;2023-05-27T13:02:23;40.90;1.00
3198;DHT22;1611;49.394;11.136;2023-05-27T13:04:50;41.60;1.00
3198;DHT22;1611;49.394;11.136;2023-05-27T13:07:17;41.30;1.00
3198;DHT22;1611;49.394;11.136;2023-05-27T13:09:44;42.00;1.00
3198;DHT22;1611;49.394;11.136;2023-05-27T13:12:11;41.10;1.00
3198;DHT22;1611;49.394;11.136;2023-05-27T13:14:39;40.70;1.00
3198;DHT22;1611;49.394;11.136;2023-05-27T13:17:08;41.10;1.00
3198;DHT22;1611;49.394;11.136;2023-05-27T13:19:35;41.70;1.00
3198;DHT22;1611;49.394;11.136;2023-05-27T13:22:02;42.10;1.00
3198;DHT22;1611;49.394;11.136;2023-05-27T13:24:29;41.70;1.00
3198;DHT22;1611;49.394;11.136;2023-05-27T13:26:55;42.20;1.00
3198;DHT22;1611;49.394;11.136;2023-05-27T13:29:22;42.10;1.00
3198;DHT22;1611;49.394;11.136;2023-05-27T13:31:50;41.70;1.00
3198;DHT22;1611;49.394;11.136;2023-05-27T13:34:17;41.50;1.00
3198;DHT22;1611;49.394;11.136;2023-05-27T13:36:44;41.50;1.00
3198;DHT22;1611;49.394;11.136;2023-05-27T13:39:10;40.80;1.00
3198;DHT22;1611;49.394;11.136;2023-05-27T13:41:37;41.30;1.00
3198;DHT22;1611;49.394;11.136;2023-05-27T13:44:04;41.90;1.00
3198;DHT22;1611;49.394;11.136;2023-05-27T13:46:31;42.10;1.00
3198;DHT22;1611;49.394;11.136;2023-05-27T13:48:59;42.20;1.00
3198;DHT22;1611;49.394;11.136;2023-05-27T13:51:26;42.70;1.00
3198;DHT22;1611;49.394;11.136;2023-05-27T13:53:52;41.90;1.00
3198;DHT22;1611;49.394;11.136;2023-05-27T13:56:19;41.20;1.00
3198;DHT22;1611;49.394;11.136;2023-05-27T13:58:48;41.40;1.00
3198;DHT22;1611;49.394;11.136;2023-05-27T14:01:15;41.70;1.00
3198;DHT22;1611;49.394;11.136;2023-05-27T14:03:42;41.60;1.00
3198;DHT22;1611;49.394;11.136;2023-05-27T14:06:10;41.90;1.00
3198;DHT22;1611;49.394;11.136;2023-05-27T14:08:37;41.10;1.00
3198;DHT22;1611;49.394;11.136;2023-05-27T14:11:04;41.50;1.00
3198;DHT22;1611;49.394;11.136;2023-05-27T14:13:31;42.60;1.00
3198;DHT22;1611;49.394;11.136;2023-05-27T14:15:58;42.70;1.00
3198;DHT22;1611;49.394;11.136;2023-05-27T14:18:25;42.70;1.00
3198;DHT22;1611;49.394;11.136;2023-05-27T14:20:52;42.60;1.00
3198;DHT22;1611;49.394;11.136;2023-05-27T14:23:20;42.30;1.00
3198;DHT22;1611;49.394;11.136;2023-05-27T14:25:47;42.70;1.00
3198;DHT22;1611;49.394;11.136;2023-05-27T14:28:13;42.90;1.00
3198;DHT22;1611;49.394;11.136;2023-05-27T14:30:40;43.40;1.00
3198;DHT22;1611;49.394;11.136;2023-05-27T14:33:08;43.20;1.00
3198;DHT22;1611;49.394;11.136;2023-05-27T14:35:35;43.60;1.00
3198;DHT22;1611;49.394;11.136;2023-05-27T14:38:03;43.90;1.00
3198;DHT22;1611;49.394;11.136;2023-05-27T14:40:32;43.10;1.00
3198;DHT22;1611;49.394;11.136;2023-05-27T14:42:59;39.70;1.00
3198;DHT22;1611;49.394;11.136;2023-05-27T14:45:25;36.60;1.00
3198;DHT22;1611;49.394;11.136;2023-05-27T14:47:52;33.70;1.00
3198;DHT22;1611;49.394;11.136;2023-05-27T14:50:22;31.90;1.00
3198;DHT22;1611;49.394;11.136;2023-05-27T14:52:50;30.70;1.50
3198;DHT22;1611;49.394;11.136;2023-05-27T14:55:17;29.80;2.50
3198;DHT22;1611;49.394;11.136;2023-05-27T14:57:45;28.90;3.30
3198;DHT22;1611;49.394;11.136;2023-05-27T15:00:13;28.10;4.90
3198;DHT22;1611;49.394;11.136;2023-05-27T15:02:40;27.80;5.30
3198;DHT22;1611;49.394;11.136;2023-05-27T15:05:08;27.60;5.30
3198;DHT22;1611;49.394;11.136;2023-05-27T15:07:36;27.20;5.70
3198;DHT22;1611;49.394;11.136;2023-05-27T15:10:04;27.20;5.30
3198;DHT22;1611;49.394;11.136;2023-05-27T15:12:38;26.90;4.40
3198;DHT22;1611;49.394;11.136;2023-05-27T15:15:10;26.60;6.40
3198;DHT22;1611;49.394;11.136;2023-05-27T15:17:38;26.40;6.80
3198;DHT22;1611;49.394;11.136;2023-05-27T15:20:07;26.10;7.20
3198;DHT22;1611;49.394;11.136;2023-05-27T15:22:33;25.90;7.50
3198;DHT22;1611;49.394;11.136;2023-05-27T15:25:00;25.60;6.90
3198;DHT22;1611;49.394;11.136;2023-05-27T15:27:27;25.50;8.40
3198;DHT22;1611;49.394;11.136;2023-05-27T15:29:54;25.20;7.20
3198;DHT22;1611;49.394;11.136;2023-05-27T15:32:22;25.80;7.30
3198;DHT22;1611;49.394;11.136;2023-05-27T15:34:49;27.40;5.50
3198;DHT22;1611;49.394;11.136;2023-05-27T15:37:16;28.70;4.10
3198;DHT22;1611;49.394;11.136;2023-05-27T15:39:43;28.50;4.20
3198;DHT22;1611;49.394;11.136;2023-05-27T15:42:09;27.60;4.40
3198;DHT22;1611;49.394;11.136;2023-05-27T15:44:36;27.10;5.60
3198;DHT22;1611;49.394;11.136;2023-05-27T15:47:03;26.80;5.40
3198;DHT22;1611;49.394;11.136;2023-05-27T15:49:31;26.50;6.70
3198;DHT22;1611;49.394;11.136;2023-05-27T15:51:58;26.20;6.20